createdAt,value
2023-02-16T00:00:06.473Z,93.02
2023-02-16T00:02:34.067Z,92.19
2023-02-16T00:05:00.709Z,91.27
2023-02-16T00:07:27.220Z,92.08
2023-02-16T00:09:53.697Z,91.97
2023-02-16T00:12:39.893Z,91.88
2023-02-16T00:15:15.758Z,92.25
2023-02-16T00:17:42.213Z,92.46
2023-02-16T00:20:17.883Z,92.70
2023-02-16T00:22:44.572Z,92.75
2023-02-16T00:25:11.078Z,93.07
2023-02-16T00:27:37.832Z,92.69
2023-02-16T00:30:13.856Z,92.65
2023-02-16T00:32:40.343Z,92.16
2023-02-16T00:35:13.970Z,92.24
2023-02-16T00:37:40.516Z,92.22
2023-02-16T00:40:07.346Z,92.89
2023-02-16T00:42:34.165Z,92.24
2023-02-16T00:45:01.199Z,93.13
2023-02-16T00:47:27.660Z,93.10
2023-02-16T00:49:56.555Z,92.33
2023-02-16T00:52:33.442Z,93.40
2023-02-16T00:55:00.844Z,93.81
2023-02-16T00:57:28.599Z,93.33
2023-02-16T01:00:02.040Z,93.27
2023-02-16T01:02:29.071Z,92.93
2023-02-16T01:04:55.712Z,93.04
2023-02-16T01:07:40.962Z,92.76
2023-02-16T01:10:26.190Z,92.47
2023-02-16T01:12:52.674Z,91.86
2023-02-16T01:15:21.171Z,92.02
2023-02-16T01:17:47.708Z,91.51
2023-02-16T01:20:15.978Z,91.52
2023-02-16T01:22:42.526Z,92.02
2023-02-16T01:25:09.069Z,92.91
2023-02-16T01:27:37.338Z,93.44
2023-02-16T01:30:05.474Z,93.02
2023-02-16T01:32:32.082Z,93.19
2023-02-16T01:34:58.718Z,93.04
2023-02-16T01:37:25.357Z,92.07
2023-02-16T01:39:51.788Z,92.25
2023-02-16T01:42:29.354Z,92.71
2023-02-16T01:45:01.533Z,93.37
2023-02-16T01:47:28.013Z,93.59
2023-02-16T01:49:54.541Z,92.54
2023-02-16T01:52:24.080Z,92.63
2023-02-16T01:54:53.519Z,92.43
2023-02-16T01:57:36.632Z,91.74
2023-02-16T02:00:12.365Z,92.37
2023-02-16T02:02:46.057Z,92.71
2023-02-16T02:05:34.106Z,93.16
2023-02-16T02:08:04.432Z,93.29
2023-02-16T02:10:38.920Z,93.53
2023-02-16T02:13:08.962Z,93.71
2023-02-16T02:15:36.898Z,92.60
2023-02-16T02:18:03.750Z,92.49
2023-02-16T02:21:01.209Z,92.25
2023-02-16T02:23:38.266Z,91.94
2023-02-16T02:26:23.926Z,92.29
2023-02-16T02:28:53.476Z,92.61
2023-02-16T02:31:27.255Z,92.19
2023-02-16T02:33:56.544Z,92.60
2023-02-16T02:36:46.822Z,92.78
2023-02-16T02:39:16.688Z,93.27
2023-02-16T02:42:04.895Z,92.90
2023-02-16T02:44:48.643Z,92.54
2023-02-16T02:47:15.409Z,91.85
2023-02-16T02:49:48.974Z,91.71
2023-02-16T02:52:15.613Z,92.29
2023-02-16T02:55:00.800Z,91.78
2023-02-16T02:58:07.453Z,92.56
2023-02-16T03:00:44.691Z,92.08
2023-02-16T03:03:24.220Z,91.68
2023-02-16T03:05:57.120Z,91.91
2023-02-16T03:08:25.364Z,92.03
2023-02-16T03:11:12.931Z,91.46
2023-02-16T03:13:42.264Z,91.35
2023-02-16T03:16:12.594Z,91.80
2023-02-16T03:18:59.303Z,91.88
2023-02-16T03:21:45.425Z,92.08
2023-02-16T03:24:31.923Z,92.81
2023-02-16T03:27:17.532Z,92.56
2023-02-16T03:29:45.712Z,92.29
2023-02-16T03:32:12.362Z,92.63
2023-02-16T03:34:38.973Z,93.19
2023-02-16T03:37:05.863Z,94.01
2023-02-16T03:39:52.875Z,94.63
2023-02-16T03:42:20.061Z,94.58
2023-02-16T03:44:46.529Z,93.93
2023-02-16T03:47:12.984Z,92.66
2023-02-16T03:49:39.429Z,92.84
2023-02-16T03:52:06.016Z,91.98
2023-02-16T03:54:32.488Z,92.02
2023-02-16T03:56:58.932Z,91.69
2023-02-16T03:59:25.473Z,91.90
2023-02-16T04:01:51.979Z,92.09
2023-02-16T04:04:18.586Z,92.22
2023-02-16T04:06:45.083Z,91.77
2023-02-16T04:09:11.546Z,91.55
2023-02-16T04:11:56.663Z,92.60
2023-02-16T04:14:23.199Z,93.26
2023-02-16T04:16:49.717Z,94.27
2023-02-16T04:19:16.200Z,93.97
2023-02-16T04:21:43.056Z,93.95
2023-02-16T04:24:09.605Z,93.54
2023-02-16T04:26:36.113Z,93.07
2023-02-16T04:29:02.585Z,92.88
2023-02-16T04:31:29.613Z,93.34
2023-02-16T04:33:56.244Z,93.24
2023-02-16T04:36:22.712Z,93.41
2023-02-16T04:38:49.142Z,93.04
2023-02-16T04:41:15.592Z,92.45
2023-02-16T04:43:42.059Z,92.98
2023-02-16T04:46:08.651Z,93.06
2023-02-16T04:48:35.185Z,93.26
2023-02-16T04:51:03.773Z,92.75
2023-02-16T04:53:30.539Z,92.94
2023-02-16T04:55:56.999Z,93.14
2023-02-16T04:58:23.525Z,94.91
2023-02-16T05:00:50.008Z,94.72
2023-02-16T05:03:16.504Z,94.13
2023-02-16T05:05:43.032Z,94.18
2023-02-16T05:08:09.675Z,93.06
2023-02-16T05:10:36.140Z,93.17
2023-02-16T05:13:21.095Z,92.33
2023-02-16T05:15:47.661Z,92.07
2023-02-16T05:18:14.247Z,91.99
2023-02-16T05:20:59.127Z,92.58
2023-02-16T05:23:25.620Z,92.59
2023-02-16T05:25:52.073Z,92.93
2023-02-16T05:28:18.616Z,92.36
2023-02-16T05:30:45.221Z,91.86
2023-02-16T05:33:11.725Z,92.80
2023-02-16T05:35:38.231Z,92.64
2023-02-16T05:38:04.770Z,92.27
2023-02-16T05:40:31.242Z,92.09
2023-02-16T05:42:57.686Z,92.77
2023-02-16T05:45:24.233Z,93.93
2023-02-16T05:47:50.761Z,92.85
2023-02-16T05:50:17.381Z,93.27
2023-02-16T05:52:44.099Z,93.22
2023-02-16T05:55:10.743Z,92.63
2023-02-16T05:57:37.191Z,93.40
2023-02-16T06:00:04.505Z,92.43
2023-02-16T06:02:31.065Z,92.70
2023-02-16T06:04:57.565Z,92.63
2023-02-16T06:07:24.138Z,92.07
2023-02-16T06:09:50.636Z,91.30
2023-02-16T06:12:17.161Z,91.16
2023-02-16T06:14:43.624Z,91.46
2023-02-16T06:17:10.092Z,91.10
2023-02-16T06:19:36.533Z,90.85
2023-02-16T06:22:03.030Z,90.16
2023-02-16T06:24:29.818Z,88.55
2023-02-16T06:26:56.322Z,88.57
2023-02-16T06:29:22.893Z,88.04
2023-02-16T06:31:49.492Z,87.10
2023-02-16T06:34:16.015Z,87.83
2023-02-16T06:36:42.816Z,87.41
2023-02-16T06:39:09.401Z,86.66
2023-02-16T06:41:39.928Z,86.91
2023-02-16T06:44:08.505Z,88.70
2023-02-16T06:46:35.094Z,88.53
2023-02-16T06:49:01.953Z,89.47
2023-02-16T06:51:28.737Z,89.41
2023-02-16T06:53:55.261Z,88.71
2023-02-16T06:56:21.720Z,88.05
2023-02-16T06:58:48.373Z,86.23
2023-02-16T07:01:14.972Z,85.44
2023-02-16T07:03:41.553Z,86.86
2023-02-16T07:06:08.125Z,87.45
2023-02-16T07:08:35.811Z,86.17
2023-02-16T07:11:02.483Z,88.15
2023-02-16T07:13:28.970Z,88.45
2023-02-16T07:15:55.460Z,89.27
2023-02-16T07:18:21.939Z,87.31
2023-02-16T07:20:48.468Z,87.29
2023-02-16T07:23:15.073Z,85.46
2023-02-16T07:25:41.502Z,83.50
2023-02-16T07:28:07.985Z,82.60
2023-02-16T07:30:35.694Z,82.25
2023-02-16T07:33:02.493Z,81.21
2023-02-16T07:35:28.939Z,81.82
2023-02-16T07:37:55.488Z,79.92
2023-02-16T07:40:21.905Z,78.52
2023-02-16T07:42:48.364Z,77.29
2023-02-16T07:45:14.849Z,75.71
2023-02-16T07:47:41.337Z,75.91
2023-02-16T07:50:08.018Z,73.78
2023-02-16T07:52:34.734Z,72.26
2023-02-16T07:55:01.530Z,73.99
2023-02-16T07:57:28.326Z,74.57
2023-02-16T07:59:55.425Z,70.90
2023-02-16T08:02:22.833Z,67.96
2023-02-16T08:04:49.821Z,67.88
2023-02-16T08:07:16.937Z,69.29
2023-02-16T08:09:43.405Z,67.47
2023-02-16T08:12:11.025Z,69.86
2023-02-16T08:14:38.056Z,70.26
2023-02-16T08:17:05.390Z,68.55
2023-02-16T08:19:32.220Z,67.40
2023-02-16T08:21:59.688Z,66.51
2023-02-16T08:24:26.677Z,64.03
2023-02-16T08:26:55.814Z,61.75
2023-02-16T08:29:23.226Z,60.91
2023-02-16T08:31:50.207Z,60.66
2023-02-16T08:34:18.619Z,66.17
2023-02-16T08:36:46.437Z,64.26
2023-02-16T08:39:17.509Z,61.05
2023-02-16T08:41:44.780Z,62.11
2023-02-16T08:44:11.563Z,64.01
2023-02-16T08:46:39.804Z,64.63
2023-02-16T08:49:07.444Z,69.02
2023-02-16T08:51:38.344Z,69.13
2023-02-16T08:54:06.097Z,64.35
2023-02-16T08:56:35.618Z,68.45
2023-02-16T08:59:02.115Z,64.20
2023-02-16T09:01:28.698Z,61.97
2023-02-16T09:03:55.183Z,61.90
2023-02-16T09:06:22.514Z,63.15
2023-02-16T09:08:53.023Z,60.82
2023-02-16T09:11:19.791Z,59.13
2023-02-16T09:13:46.874Z,56.79
2023-02-16T09:16:15.707Z,58.93
2023-02-16T09:18:42.725Z,58.78
2023-02-16T09:21:11.347Z,59.55
2023-02-16T09:23:39.014Z,57.68
2023-02-16T09:26:09.742Z,58.65
2023-02-16T09:28:38.137Z,59.45
2023-02-16T09:31:11.800Z,59.07
2023-02-16T09:33:38.965Z,61.16
2023-02-16T09:36:07.012Z,57.99
2023-02-16T09:38:34.137Z,57.18
2023-02-16T09:41:27.571Z,55.61
2023-02-16T09:44:06.969Z,54.70
2023-02-16T09:46:34.280Z,56.64
2023-02-16T09:49:02.389Z,54.38
2023-02-16T09:51:35.260Z,54.75
2023-02-16T09:54:10.743Z,54.96
2023-02-16T09:56:58.834Z,56.63
2023-02-16T09:59:34.439Z,53.12
2023-02-16T10:02:16.711Z,52.24
2023-02-16T10:04:58.726Z,54.12
2023-02-16T10:07:31.704Z,52.80
2023-02-16T10:10:00.852Z,52.54
2023-02-16T10:12:31.415Z,52.93
2023-02-16T10:15:06.191Z,50.77
2023-02-16T10:17:32.677Z,50.04
2023-02-16T10:20:18.222Z,48.56
2023-02-16T10:22:49.885Z,49.91
2023-02-16T10:25:39.100Z,48.35
2023-02-16T10:28:15.977Z,49.25
2023-02-16T10:30:44.856Z,48.51
2023-02-16T10:33:30.082Z,46.49
2023-02-16T10:36:00.657Z,49.14
2023-02-16T10:38:31.202Z,46.95
2023-02-16T10:40:57.629Z,46.91
2023-02-16T10:43:42.511Z,47.32
2023-02-16T10:46:11.599Z,45.76
2023-02-16T10:48:38.115Z,45.51
2023-02-16T10:51:17.920Z,45.21
2023-02-16T10:54:10.838Z,44.14
2023-02-16T10:56:37.324Z,41.98
2023-02-16T10:59:06.986Z,40.61
2023-02-16T11:01:33.537Z,40.57
2023-02-16T11:04:00.005Z,41.76
2023-02-16T11:06:26.905Z,40.60
2023-02-16T11:08:57.147Z,40.03
2023-02-16T11:11:27.482Z,39.99
2023-02-16T11:13:58.704Z,38.16
2023-02-16T11:16:25.748Z,38.22
2023-02-16T11:18:58.112Z,38.34
2023-02-16T11:21:42.718Z,38.55
2023-02-16T11:24:12.095Z,40.31
2023-02-16T11:26:39.012Z,37.90
2023-02-16T11:29:31.736Z,37.69
2023-02-16T11:31:59.114Z,37.12
2023-02-16T11:34:36.059Z,37.88
2023-02-16T11:37:05.596Z,38.50
2023-02-16T11:39:36.000Z,39.67
2023-02-16T11:42:10.352Z,39.40
2023-02-16T11:44:38.450Z,37.83
2023-02-16T11:47:20.958Z,39.07
2023-02-16T11:49:47.580Z,38.11
2023-02-16T11:52:23.143Z,39.97
2023-02-16T11:54:57.517Z,39.26
2023-02-16T11:57:25.600Z,38.00
2023-02-16T11:59:52.197Z,37.47
2023-02-16T12:02:24.811Z,36.24
2023-02-16T12:04:54.954Z,38.45
2023-02-16T12:07:23.066Z,36.51
2023-02-16T12:09:49.745Z,35.53
2023-02-16T12:12:35.130Z,36.69
2023-02-16T12:15:06.910Z,35.58
2023-02-16T12:17:36.334Z,33.91
2023-02-16T12:20:11.442Z,33.52
2023-02-16T12:22:48.320Z,33.13
2023-02-16T12:25:22.473Z,32.62
2023-02-16T12:27:52.048Z,33.99
2023-02-16T12:30:36.951Z,32.89
2023-02-16T12:33:14.931Z,32.71
2023-02-16T12:36:06.671Z,34.09
2023-02-16T12:38:48.175Z,34.67
2023-02-16T12:41:14.636Z,34.68
2023-02-16T12:43:50.349Z,33.49
2023-02-16T12:46:28.213Z,33.38
2023-02-16T12:48:59.412Z,32.69
2023-02-16T12:51:28.650Z,32.94
2023-02-16T12:53:58.210Z,33.91
2023-02-16T12:56:45.048Z,32.66
2023-02-16T12:59:22.222Z,32.62
2023-02-16T13:01:51.829Z,31.34
2023-02-16T13:04:22.474Z,32.17
2023-02-16T13:06:55.814Z,31.74
2023-02-16T13:09:34.063Z,32.73
2023-02-16T13:12:06.484Z,32.30
2023-02-16T13:14:34.839Z,31.27
2023-02-16T13:17:24.122Z,31.60
2023-02-16T13:19:51.952Z,32.14
2023-02-16T13:22:27.799Z,31.81
2023-02-16T13:25:14.717Z,29.81
2023-02-16T13:28:00.341Z,29.20
2023-02-16T13:30:48.456Z,30.44
2023-02-16T13:33:30.287Z,29.96
2023-02-16T13:36:03.271Z,29.09
2023-02-16T13:38:47.889Z,29.61
2023-02-16T13:41:23.391Z,31.60
2023-02-16T13:43:54.419Z,30.57
2023-02-16T13:46:29.014Z,30.95
2023-02-16T13:48:55.997Z,32.30
2023-02-16T13:51:25.125Z,31.42
2023-02-16T13:53:54.315Z,31.84
2023-02-16T13:56:23.254Z,31.97
2023-02-16T13:58:53.327Z,31.55
2023-02-16T14:01:32.170Z,31.66
2023-02-16T14:03:59.622Z,30.23
2023-02-16T14:06:26.861Z,32.42
2023-02-16T14:09:12.225Z,31.72
2023-02-16T14:11:52.837Z,29.49
2023-02-16T14:14:34.808Z,30.86
2023-02-16T14:17:16.868Z,30.83
2023-02-16T14:20:04.984Z,28.54
2023-02-16T14:22:48.847Z,30.39
2023-02-16T14:25:24.479Z,31.63
2023-02-16T14:27:59.024Z,31.83
2023-02-16T14:30:28.789Z,33.85
2023-02-16T14:33:16.264Z,33.97
2023-02-16T14:36:03.184Z,33.51
2023-02-16T14:38:33.613Z,33.51
2023-02-16T14:41:01.351Z,34.73
2023-02-16T14:43:35.814Z,34.87
2023-02-16T14:46:02.474Z,35.64
2023-02-16T14:48:35.780Z,36.10
2023-02-16T14:51:11.931Z,35.80
2023-02-16T14:53:51.406Z,36.51
2023-02-16T14:56:36.872Z,39.08
2023-02-16T14:59:07.772Z,38.25
2023-02-16T15:01:41.247Z,39.74
2023-02-16T15:04:09.153Z,40.74
2023-02-16T15:06:38.609Z,42.19
2023-02-16T15:09:13.434Z,41.44
2023-02-16T15:12:07.814Z,41.77
2023-02-16T15:14:37.642Z,43.71
2023-02-16T15:17:06.642Z,43.15
2023-02-16T15:19:33.193Z,43.12
2023-02-16T15:22:10.270Z,43.55
2023-02-16T15:24:36.961Z,44.45
2023-02-16T15:27:03.671Z,45.41
2023-02-16T15:29:30.389Z,45.64
2023-02-16T15:31:58.899Z,46.46
2023-02-16T15:34:30.210Z,46.92
2023-02-16T15:36:57.255Z,47.96
2023-02-16T15:39:48.296Z,47.16
2023-02-16T15:42:23.993Z,48.52
2023-02-16T15:44:50.838Z,47.39
2023-02-16T15:47:21.662Z,48.51
2023-02-16T15:49:48.337Z,48.76
2023-02-16T15:52:17.617Z,50.30
2023-02-16T15:54:45.049Z,51.61
2023-02-16T15:57:21.159Z,52.57
2023-02-16T15:59:48.952Z,53.37
2023-02-16T16:02:17.183Z,54.47
2023-02-16T16:04:46.175Z,56.07
2023-02-16T16:07:14.587Z,56.90
2023-02-16T16:09:42.439Z,58.63
2023-02-16T16:12:11.625Z,58.72
2023-02-16T16:15:01.383Z,59.37
2023-02-16T16:17:30.269Z,60.87
2023-02-16T16:19:58.046Z,60.91
2023-02-16T16:22:33.060Z,60.58
2023-02-16T16:24:59.970Z,60.69
2023-02-16T16:27:31.491Z,62.09
2023-02-16T16:30:09.813Z,62.56
2023-02-16T16:32:37.781Z,61.95
2023-02-16T16:35:18.501Z,61.92
2023-02-16T16:37:48.843Z,62.96
2023-02-16T16:40:18.430Z,63.86
2023-02-16T16:43:11.407Z,65.31
2023-02-16T16:45:41.073Z,65.88
2023-02-16T16:48:09.305Z,65.00
2023-02-16T16:50:39.717Z,64.19
2023-02-16T16:53:25.352Z,63.82
2023-02-16T16:55:51.950Z,65.18
2023-02-16T16:58:18.429Z,65.34
2023-02-16T17:00:44.909Z,64.97
2023-02-16T17:03:16.723Z,65.44
2023-02-16T17:05:43.867Z,66.52
2023-02-16T17:08:10.997Z,66.16
2023-02-16T17:10:39.098Z,65.05
2023-02-16T17:13:05.850Z,64.84
2023-02-16T17:15:32.422Z,65.15
2023-02-16T17:17:59.004Z,65.94
2023-02-16T17:20:25.465Z,66.43
2023-02-16T17:22:51.988Z,66.88
2023-02-16T17:25:18.898Z,68.73
2023-02-16T17:27:45.392Z,68.60
2023-02-16T17:30:12.154Z,67.39
2023-02-16T17:32:38.815Z,67.67
2023-02-16T17:35:06.130Z,68.04
2023-02-16T17:37:33.203Z,66.89
2023-02-16T17:39:59.733Z,67.70
2023-02-16T17:42:28.155Z,67.89
2023-02-16T17:44:54.773Z,68.33
2023-02-16T17:47:21.307Z,68.53
2023-02-16T17:49:47.787Z,68.86
2023-02-16T17:52:14.300Z,67.80
2023-02-16T17:54:40.754Z,68.27
2023-02-16T17:57:07.194Z,69.29
2023-02-16T17:59:34.282Z,69.91
2023-02-16T18:02:00.849Z,69.12
2023-02-16T18:04:27.466Z,69.47
2023-02-16T18:06:54.065Z,69.07
2023-02-16T18:09:24.290Z,69.55
2023-02-16T18:11:51.442Z,69.09
2023-02-16T18:14:17.940Z,68.52
2023-02-16T18:16:44.497Z,70.04
2023-02-16T18:19:14.098Z,71.67
2023-02-16T18:21:40.552Z,72.41
2023-02-16T18:24:07.146Z,72.53
2023-02-16T18:26:33.780Z,72.45
2023-02-16T18:29:00.256Z,72.31
2023-02-16T18:31:26.835Z,73.45
2023-02-16T18:33:53.373Z,73.53
2023-02-16T18:36:19.838Z,74.58
2023-02-16T18:38:46.349Z,73.36
2023-02-16T18:41:12.940Z,73.13
2023-02-16T18:43:39.405Z,72.25
2023-02-16T18:46:06.828Z,73.01
2023-02-16T18:48:33.557Z,74.00
2023-02-16T18:51:03.189Z,74.01
2023-02-16T18:53:29.685Z,73.99
2023-02-16T18:55:56.173Z,74.37
2023-02-16T18:58:22.624Z,73.41
2023-02-16T19:00:49.639Z,73.52
2023-02-16T19:03:16.129Z,74.27
2023-02-16T19:05:42.704Z,74.44
2023-02-16T19:08:09.242Z,74.23
2023-02-16T19:10:35.669Z,73.05
2023-02-16T19:13:02.341Z,74.64
2023-02-16T19:15:29.236Z,74.39
2023-02-16T19:17:55.787Z,75.68
2023-02-16T19:20:22.335Z,75.59
2023-02-16T19:22:49.103Z,75.04
2023-02-16T19:25:15.657Z,74.60
2023-02-16T19:27:42.671Z,75.14
2023-02-16T19:30:11.682Z,76.42
2023-02-16T19:32:40.928Z,76.80
2023-02-16T19:35:11.176Z,77.56
2023-02-16T19:37:37.716Z,77.92
2023-02-16T19:40:06.679Z,76.63
2023-02-16T19:42:33.117Z,76.97
2023-02-16T19:44:59.603Z,77.37
2023-02-16T19:47:26.084Z,77.89
2023-02-16T19:49:52.822Z,77.36
2023-02-16T19:52:19.291Z,76.50
2023-02-16T19:54:45.800Z,78.22
2023-02-16T19:57:12.277Z,79.21
2023-02-16T19:59:38.763Z,79.31
2023-02-16T20:02:05.260Z,79.72
2023-02-16T20:04:31.806Z,80.84
2023-02-16T20:06:58.341Z,81.08
2023-02-16T20:09:24.951Z,80.90
2023-02-16T20:11:51.763Z,80.06
2023-02-16T20:14:18.256Z,80.06
2023-02-16T20:16:44.758Z,79.58
2023-02-16T20:19:11.287Z,78.99
2023-02-16T20:21:37.794Z,77.40
2023-02-16T20:24:05.190Z,77.37
2023-02-16T20:26:34.519Z,78.75
2023-02-16T20:29:01.423Z,79.49
2023-02-16T20:31:27.972Z,79.64
2023-02-16T20:33:55.297Z,79.89
2023-02-16T20:36:22.079Z,79.74
2023-02-16T20:38:50.267Z,80.72
2023-02-16T20:41:20.068Z,80.16
2023-02-16T20:43:46.982Z,80.65
2023-02-16T20:46:14.184Z,80.75
2023-02-16T20:48:40.728Z,82.08
2023-02-16T20:51:07.751Z,82.38
2023-02-16T20:53:35.296Z,82.91
2023-02-16T20:56:09.672Z,82.21
2023-02-16T20:58:36.547Z,82.14
2023-02-16T21:01:03.673Z,81.75
2023-02-16T21:03:30.184Z,82.73
2023-02-16T21:05:56.990Z,82.87
2023-02-16T21:08:23.580Z,81.71
2023-02-16T21:10:50.208Z,81.49
2023-02-16T21:13:16.678Z,81.47
2023-02-16T21:15:43.183Z,81.24
2023-02-16T21:18:10.537Z,81.16
2023-02-16T21:20:37.208Z,80.97
2023-02-16T21:23:03.692Z,81.82
2023-02-16T21:25:30.514Z,81.34
2023-02-16T21:27:56.996Z,81.34
2023-02-16T21:30:25.650Z,80.83
2023-02-16T21:32:52.149Z,81.43
2023-02-16T21:35:18.672Z,82.59
2023-02-16T21:37:45.152Z,84.59
2023-02-16T21:40:30.630Z,84.05
2023-02-16T21:42:57.466Z,83.24
2023-02-16T21:45:24.128Z,83.51
2023-02-16T21:48:09.378Z,83.34
2023-02-16T21:50:37.176Z,84.52
2023-02-16T21:53:04.718Z,84.35
2023-02-16T21:55:50.045Z,83.57
2023-02-16T21:58:16.930Z,84.35
2023-02-16T22:00:44.457Z,85.15
2023-02-16T22:03:12.437Z,85.17
2023-02-16T22:05:38.885Z,85.56
2023-02-16T22:08:05.576Z,84.82
2023-02-16T22:10:32.047Z,84.57
2023-02-16T22:12:58.843Z,84.54
2023-02-16T22:15:26.124Z,84.95
2023-02-16T22:17:52.715Z,85.90
2023-02-16T22:20:19.294Z,85.68
2023-02-16T22:22:45.865Z,85.46
2023-02-16T22:25:12.865Z,87.68
2023-02-16T22:27:39.745Z,87.05
2023-02-16T22:30:07.276Z,86.58
2023-02-16T22:32:33.941Z,85.96
2023-02-16T22:35:00.901Z,85.07
2023-02-16T22:37:27.374Z,85.41
2023-02-16T22:39:56.328Z,85.48
2023-02-16T22:42:23.083Z,86.18
2023-02-16T22:44:49.636Z,87.92
2023-02-16T22:47:16.114Z,87.47
2023-02-16T22:49:42.678Z,87.63
2023-02-16T22:52:11.070Z,87.09
2023-02-16T22:54:37.826Z,86.58
2023-02-16T22:57:04.382Z,86.41
2023-02-16T22:59:30.878Z,86.75
2023-02-16T23:01:57.395Z,87.61
2023-02-16T23:04:24.392Z,87.46
2023-02-16T23:06:50.947Z,86.91
2023-02-16T23:09:19.302Z,86.81
2023-02-16T23:11:46.304Z,85.67
2023-02-16T23:14:18.488Z,86.36
2023-02-16T23:16:45.966Z,87.18
2023-02-16T23:19:13.478Z,87.37
2023-02-16T23:21:40.529Z,87.40
2023-02-16T23:24:07.511Z,87.84
2023-02-16T23:26:34.064Z,87.95
2023-02-16T23:29:01.728Z,87.86
2023-02-16T23:31:31.650Z,87.40
2023-02-16T23:33:59.980Z,84.59
2023-02-16T23:36:27.625Z,85.75
2023-02-16T23:38:54.083Z,85.32
2023-02-16T23:41:20.535Z,86.33
2023-02-16T23:43:47.087Z,87.27
2023-02-16T23:46:13.596Z,87.36
2023-02-16T23:48:40.127Z,87.95
2023-02-16T23:51:06.719Z,88.87
2023-02-16T23:53:33.219Z,91.43
2023-02-16T23:55:59.740Z,91.02
2023-02-16T23:58:27.327Z,88.76
